sensor_id;sensor_type;location;lat;lon;timestamp;P1;durP1;ratioP1;P2;durP2;ratioP2
57337;SDS011;43173;50.980;18.204;2022-08-25T11:00:58;29.20;;;6.60;;
57337;SDS011;43173;50.980;18.204;2022-08-25T11:03:37;26.40;;;6.40;;
57337;SDS011;43173;50.980;18.204;2022-08-25T11:09:12;25.50;;;6.50;;
57337;SDS011;43173;50.980;18.204;2022-08-25T11:12:03;21.50;;;5.60;;
57337;SDS011;43173;50.980;18.204;2022-08-25T11:17:25;24.10;;;6.40;;
57337;SDS011;43173;50.980;18.204;2022-08-25T11:20:04;22.30;;;6.70;;
57337;SDS011;43173;50.980;18.204;2022-08-25T11:22:39;30.00;;;6.20;;
57337;SDS011;43173;50.980;18.204;2022-08-25T11:27:57;21.20;;;6.50;;
57337;SDS011;43173;50.980;18.204;2022-08-25T11:30:23;22.40;;;6.10;;
57337;SDS011;43173;50.980;18.204;2022-08-25T11:32:50;29.80;;;6.50;;
57337;SDS011;43173;50.980;18.204;2022-08-25T11:35:18;27.10;;;5.90;;
57337;SDS011;43173;50.980;18.204;2022-08-25T11:40:50;22.00;;;6.30;;
57337;SDS011;43173;50.980;18.204;2022-08-25T11:46:29;29.50;;;6.30;;
57337;SDS011;43173;50.980;18.204;2022-08-25T11:58:14;24.10;;;5.10;;
57337;SDS011;43173;50.980;18.204;2022-08-25T12:00:42;26.10;;;6.10;;
57337;SDS011;43173;50.980;18.204;2022-08-25T12:08:52;26.50;;;5.50;;
57337;SDS011;43173;50.980;18.204;2022-08-25T12:27:27;25.40;;;5.20;;
57337;SDS011;43173;50.980;18.204;2022-08-25T12:32:59;30.40;;;5.90;;
57337;SDS011;43173;50.980;18.204;2022-08-25T12:38:14;28.30;;;6.10;;
57337;SDS011;43173;50.980;18.204;2022-08-25T12:43:12;31.00;;;5.40;;
57337;SDS011;43173;50.980;18.204;2022-08-25T12:45:47;25.50;;;5.80;;
57337;SDS011;43173;50.980;18.204;2022-08-25T12:51:05;25.60;;;5.60;;
57337;SDS011;43173;50.980;18.204;2022-08-25T12:53:33;19.50;;;5.20;;
57337;SDS011;43173;50.980;18.204;2022-08-25T12:56:04;27.10;;;5.30;;
57337;SDS011;43173;50.980;18.204;2022-08-25T13:15:58;23.40;;;5.20;;
57337;SDS011;43173;50.980;18.204;2022-08-25T13:18:25;23.30;;;5.70;;
57337;SDS011;43173;50.980;18.204;2022-08-25T13:21:00;27.70;;;5.00;;
57337;SDS011;43173;50.980;18.204;2022-08-25T13:23:28;25.30;;;5.90;;
57337;SDS011;43173;50.980;18.204;2022-08-25T13:25:55;27.20;;;5.10;;
57337;SDS011;43173;50.980;18.204;2022-08-25T13:28:42;26.00;;;6.20;;
57337;SDS011;43173;50.980;18.204;2022-08-25T13:31:12;27.60;;;6.10;;
57337;SDS011;43173;50.980;18.204;2022-08-25T13:34:03;26.20;;;5.50;;
57337;SDS011;43173;50.980;18.204;2022-08-25T13:36:30;21.30;;;5.60;;
57337;SDS011;43173;50.980;18.204;2022-08-25T13:39:20;23.40;;;5.80;;
57337;SDS011;43173;50.980;18.204;2022-08-25T13:41:48;26.20;;;5.60;;
57337;SDS011;43173;50.980;18.204;2022-08-25T13:44:16;21.50;;;5.60;;
57337;SDS011;43173;50.980;18.204;2022-08-25T13:46:44;26.90;;;5.90;;
57337;SDS011;43173;50.980;18.204;2022-08-25T13:49:12;26.10;;;5.50;;
57337;SDS011;43173;50.980;18.204;2022-08-25T13:51:51;22.20;;;5.60;;
57337;SDS011;43173;50.980;18.204;2022-08-25T13:54:25;20.60;;;5.20;;
57337;SDS011;43173;50.980;18.204;2022-08-25T13:56:53;26.10;;;6.50;;
57337;SDS011;43173;50.980;18.204;2022-08-25T13:59:34;22.00;;;5.40;;
57337;SDS011;43173;50.980;18.204;2022-08-25T14:02:03;22.20;;;5.60;;
57337;SDS011;43173;50.980;18.204;2022-08-25T14:09:50;24.00;;;4.80;;
57337;SDS011;43173;50.980;18.204;2022-08-25T14:12:28;24.20;;;4.90;;
57337;SDS011;43173;50.980;18.204;2022-08-25T14:15:02;21.80;;;5.50;;
57337;SDS011;43173;50.980;18.204;2022-08-25T14:17:31;20.00;;;4.80;;
57337;SDS011;43173;50.980;18.204;2022-08-25T14:19:57;20.20;;;5.10;;
57337;SDS011;43173;50.980;18.204;2022-08-25T14:22:23;31.80;;;5.70;;
57337;SDS011;43173;50.980;18.204;2022-08-25T14:24:48;21.20;;;5.40;;
57337;SDS011;43173;50.980;18.204;2022-08-25T14:27:16;23.20;;;4.90;;
57337;SDS011;43173;50.980;18.204;2022-08-25T14:29:43;27.30;;;5.90;;
57337;SDS011;43173;50.980;18.204;2022-08-25T14:32:09;25.90;;;5.40;;
57337;SDS011;43173;50.980;18.204;2022-08-25T14:34:35;19.70;;;4.90;;
57337;SDS011;43173;50.980;18.204;2022-08-25T14:37:05;18.50;;;5.00;;
57337;SDS011;43173;50.980;18.204;2022-08-25T14:39:34;25.60;;;5.30;;
57337;SDS011;43173;50.980;18.204;2022-08-25T14:42:00;21.90;;;5.20;;
57337;SDS011;43173;50.980;18.204;2022-08-25T14:44:25;25.90;;;5.80;;
57337;SDS011;43173;50.980;18.204;2022-08-25T14:46:52;19.40;;;5.80;;
57337;SDS011;43173;50.980;18.204;2022-08-25T14:49:21;20.10;;;5.20;;
57337;SDS011;43173;50.980;18.204;2022-08-25T14:51:49;27.30;;;5.30;;
57337;SDS011;43173;50.980;18.204;2022-08-25T14:54:15;20.80;;;5.50;;
57337;SDS011;43173;50.980;18.204;2022-08-25T14:56:43;20.90;;;5.50;;
57337;SDS011;43173;50.980;18.204;2022-08-25T14:59:10;21.10;;;5.40;;
57337;SDS011;43173;50.980;18.204;2022-08-25T15:01:36;21.60;;;5.30;;
57337;SDS011;43173;50.980;18.204;2022-08-25T15:04:03;17.10;;;4.60;;
57337;SDS011;43173;50.980;18.204;2022-08-25T15:06:35;24.10;;;5.40;;
57337;SDS011;43173;50.980;18.204;2022-08-25T15:09:03;27.90;;;5.40;;
57337;SDS011;43173;50.980;18.204;2022-08-25T15:11:33;21.70;;;5.10;;
57337;SDS011;43173;50.980;18.204;2022-08-25T15:13:59;21.70;;;5.30;;
57337;SDS011;43173;50.980;18.204;2022-08-25T15:16:33;23.40;;;5.20;;
57337;SDS011;43173;50.980;18.204;2022-08-25T15:19:02;22.30;;;5.40;;
57337;SDS011;43173;50.980;18.204;2022-08-25T15:21:30;20.10;;;5.20;;
57337;SDS011;43173;50.980;18.204;2022-08-25T15:23:56;18.30;;;5.60;;
57337;SDS011;43173;50.980;18.204;2022-08-25T15:26:21;22.70;;;5.30;;
57337;SDS011;43173;50.980;18.204;2022-08-25T15:28:49;26.40;;;5.00;;
57337;SDS011;43173;50.980;18.204;2022-08-25T15:31:16;23.00;;;5.70;;
57337;SDS011;43173;50.980;18.204;2022-08-25T15:33:44;26.20;;;5.70;;
57337;SDS011;43173;50.980;18.204;2022-08-25T15:36:14;16.90;;;5.20;;
57337;SDS011;43173;50.980;18.204;2022-08-25T15:38:41;17.80;;;5.20;;
57337;SDS011;43173;50.980;18.204;2022-08-25T15:41:10;19.60;;;5.00;;
57337;SDS011;43173;50.980;18.204;2022-08-25T15:43:37;22.40;;;5.40;;
57337;SDS011;43173;50.980;18.204;2022-08-25T15:46:03;18.50;;;5.60;;
57337;SDS011;43173;50.980;18.204;2022-08-25T15:48:31;23.80;;;5.50;;
57337;SDS011;43173;50.980;18.204;2022-08-25T15:51:00;21.20;;;5.60;;
57337;SDS011;43173;50.980;18.204;2022-08-25T15:53:27;22.10;;;5.50;;
57337;SDS011;43173;50.980;18.204;2022-08-25T15:55:54;21.60;;;5.30;;
57337;SDS011;43173;50.980;18.204;2022-08-25T15:58:21;18.90;;;5.90;;
57337;SDS011;43173;50.980;18.204;2022-08-25T16:00:48;17.60;;;4.90;;
57337;SDS011;43173;50.980;18.204;2022-08-25T16:03:14;13.90;;;5.20;;
57337;SDS011;43173;50.980;18.204;2022-08-25T16:05:41;26.40;;;5.30;;
57337;SDS011;43173;50.980;18.204;2022-08-25T16:08:07;23.30;;;5.30;;
57337;SDS011;43173;50.980;18.204;2022-08-25T16:10:34;19.60;;;5.10;;
57337;SDS011;43173;50.980;18.204;2022-08-25T16:13:00;17.80;;;5.10;;
57337;SDS011;43173;50.980;18.204;2022-08-25T16:15:27;20.00;;;5.10;;
57337;SDS011;43173;50.980;18.204;2022-08-25T16:17:53;19.40;;;5.30;;
57337;SDS011;43173;50.980;18.204;2022-08-25T16:20:19;21.60;;;5.40;;
57337;SDS011;43173;50.980;18.204;2022-08-25T16:22:46;16.50;;;5.30;;
57337;SDS011;43173;50.980;18.204;2022-08-25T16:25:13;21.10;;;6.00;;
57337;SDS011;43173;50.980;18.204;2022-08-25T16:27:39;20.20;;;5.40;;
57337;SDS011;43173;50.980;18.204;2022-08-25T16:30:06;21.20;;;6.00;;
57337;SDS011;43173;50.980;18.204;2022-08-25T16:32:32;19.00;;;5.80;;
57337;SDS011;43173;50.980;18.204;2022-08-25T16:34:57;23.50;;;5.80;;
57337;SDS011;43173;50.980;18.204;2022-08-25T16:37:23;18.20;;;5.70;;
57337;SDS011;43173;50.980;18.204;2022-08-25T16:39:52;17.30;;;5.30;;
57337;SDS011;43173;50.980;18.204;2022-08-25T16:42:18;22.90;;;6.10;;
57337;SDS011;43173;50.980;18.204;2022-08-25T16:44:44;24.50;;;6.00;;
57337;SDS011;43173;50.980;18.204;2022-08-25T16:47:11;23.80;;;6.10;;
57337;SDS011;43173;50.980;18.204;2022-08-25T16:49:38;24.30;;;5.80;;
57337;SDS011;43173;50.980;18.204;2022-08-25T16:52:05;22.90;;;6.60;;
57337;SDS011;43173;50.980;18.204;2022-08-25T16:54:51;21.00;;;6.20;;
57337;SDS011;43173;50.980;18.204;2022-08-25T16:57:35;21.90;;;6.40;;
57337;SDS011;43173;50.980;18.204;2022-08-25T17:00:02;22.00;;;6.30;;
57337;SDS011;43173;50.980;18.204;2022-08-25T17:02:29;19.30;;;6.40;;
57337;SDS011;43173;50.980;18.204;2022-08-25T17:04:55;23.40;;;7.00;;
57337;SDS011;43173;50.980;18.204;2022-08-25T17:07:21;23.00;;;6.40;;
57337;SDS011;43173;50.980;18.204;2022-08-25T17:09:47;19.50;;;7.20;;
57337;SDS011;43173;50.980;18.204;2022-08-25T17:12:12;21.90;;;6.90;;
57337;SDS011;43173;50.980;18.204;2022-08-25T17:14:38;14.50;;;6.50;;
57337;SDS011;43173;50.980;18.204;2022-08-25T17:17:03;26.30;;;7.80;;
57337;SDS011;43173;50.980;18.204;2022-08-25T17:19:29;20.80;;;7.30;;
57337;SDS011;43173;50.980;18.204;2022-08-25T17:21:54;22.20;;;7.80;;
57337;SDS011;43173;50.980;18.204;2022-08-25T17:24:23;30.30;;;8.10;;
57337;SDS011;43173;50.980;18.204;2022-08-25T17:26:49;22.10;;;8.00;;
57337;SDS011;43173;50.980;18.204;2022-08-25T17:29:15;20.10;;;8.30;;
57337;SDS011;43173;50.980;18.204;2022-08-25T17:31:41;28.80;;;8.50;;
57337;SDS011;43173;50.980;18.204;2022-08-25T17:34:09;24.50;;;8.20;;
57337;SDS011;43173;50.980;18.204;2022-08-25T17:36:37;21.70;;;8.20;;
57337;SDS011;43173;50.980;18.204;2022-08-25T17:39:04;24.40;;;9.10;;
57337;SDS011;43173;50.980;18.204;2022-08-25T17:41:30;21.90;;;8.70;;
57337;SDS011;43173;50.980;18.204;2022-08-25T17:43:57;24.90;;;9.40;;
57337;SDS011;43173;50.980;18.204;2022-08-25T17:46:23;27.60;;;9.50;;
57337;SDS011;43173;50.980;18.204;2022-08-25T17:48:49;30.90;;;9.50;;
57337;SDS011;43173;50.980;18.204;2022-08-25T17:51:15;23.90;;;10.00;;
57337;SDS011;43173;50.980;18.204;2022-08-25T17:53:41;24.30;;;10.40;;
57337;SDS011;43173;50.980;18.204;2022-08-25T17:56:09;29.60;;;9.50;;
57337;SDS011;43173;50.980;18.204;2022-08-25T17:58:37;27.30;;;10.00;;
57337;SDS011;43173;50.980;18.204;2022-08-25T18:01:03;21.20;;;9.70;;
57337;SDS011;43173;50.980;18.204;2022-08-25T18:03:30;23.10;;;10.00;;
57337;SDS011;43173;50.980;18.204;2022-08-25T18:05:56;18.60;;;9.80;;
57337;SDS011;43173;50.980;18.204;2022-08-25T18:08:22;19.70;;;9.40;;
57337;SDS011;43173;50.980;18.204;2022-08-25T18:10:48;22.60;;;9.60;;
57337;SDS011;43173;50.980;18.204;2022-08-25T18:13:14;30.90;;;9.50;;
57337;SDS011;43173;50.980;18.204;2022-08-25T18:15:40;22.00;;;9.30;;
57337;SDS011;43173;50.980;18.204;2022-08-25T18:18:07;20.50;;;9.00;;
57337;SDS011;43173;50.980;18.204;2022-08-25T18:20:33;22.30;;;9.70;;
57337;SDS011;43173;50.980;18.204;2022-08-25T18:22:59;20.00;;;9.50;;
57337;SDS011;43173;50.980;18.204;2022-08-25T18:25:25;22.80;;;10.70;;
57337;SDS011;43173;50.980;18.204;2022-08-25T18:27:52;24.70;;;10.70;;
57337;SDS011;43173;50.980;18.204;2022-08-25T18:30:19;25.00;;;10.40;;
57337;SDS011;43173;50.980;18.204;2022-08-25T18:32:44;20.30;;;9.90;;
57337;SDS011;43173;50.980;18.204;2022-08-25T18:35:10;23.30;;;10.40;;
57337;SDS011;43173;50.980;18.204;2022-08-25T18:37:36;17.50;;;10.40;;
57337;SDS011;43173;50.980;18.204;2022-08-25T18:40:20;21.70;;;10.40;;
57337;SDS011;43173;50.980;18.204;2022-08-25T18:45:27;25.80;;;11.40;;
57337;SDS011;43173;50.980;18.204;2022-08-25T18:47:56;29.60;;;11.40;;
57337;SDS011;43173;50.980;18.204;2022-08-25T18:50:23;18.60;;;10.20;;
57337;SDS011;43173;50.980;18.204;2022-08-25T18:52:53;28.90;;;11.50;;
57337;SDS011;43173;50.980;18.204;2022-08-25T18:55:19;27.60;;;10.90;;
57337;SDS011;43173;50.980;18.204;2022-08-25T18:57:46;29.20;;;12.40;;
57337;SDS011;43173;50.980;18.204;2022-08-25T19:00:13;23.40;;;11.20;;
57337;SDS011;43173;50.980;18.204;2022-08-25T19:02:43;23.20;;;11.70;;
57337;SDS011;43173;50.980;18.204;2022-08-25T19:05:13;26.60;;;12.20;;
57337;SDS011;43173;50.980;18.204;2022-08-25T19:07:40;24.40;;;11.10;;
57337;SDS011;43173;50.980;18.204;2022-08-25T19:10:06;28.40;;;12.00;;
57337;SDS011;43173;50.980;18.204;2022-08-25T19:12:34;24.00;;;12.50;;
57337;SDS011;43173;50.980;18.204;2022-08-25T19:14:59;21.00;;;12.40;;
57337;SDS011;43173;50.980;18.204;2022-08-25T19:17:25;26.70;;;12.70;;
57337;SDS011;43173;50.980;18.204;2022-08-25T19:19:51;25.40;;;12.40;;
57337;SDS011;43173;50.980;18.204;2022-08-25T19:22:16;24.00;;;13.30;;
57337;SDS011;43173;50.980;18.204;2022-08-25T19:24:42;21.10;;;12.20;;
57337;SDS011;43173;50.980;18.204;2022-08-25T19:27:09;25.50;;;12.70;;
57337;SDS011;43173;50.980;18.204;2022-08-25T19:29:34;25.90;;;13.80;;
57337;SDS011;43173;50.980;18.204;2022-08-25T19:32:00;28.60;;;12.70;;
57337;SDS011;43173;50.980;18.204;2022-08-25T19:34:28;21.50;;;13.30;;
57337;SDS011;43173;50.980;18.204;2022-08-25T19:36:56;21.60;;;13.40;;
57337;SDS011;43173;50.980;18.204;2022-08-25T19:39:23;27.80;;;14.10;;
57337;SDS011;43173;50.980;18.204;2022-08-25T19:41:49;24.60;;;13.70;;
57337;SDS011;43173;50.980;18.204;2022-08-25T19:44:14;26.80;;;13.30;;
57337;SDS011;43173;50.980;18.204;2022-08-25T19:46:41;27.40;;;13.80;;
57337;SDS011;43173;50.980;18.204;2022-08-25T19:49:13;32.80;;;14.20;;
57337;SDS011;43173;50.980;18.204;2022-08-25T19:51:42;26.60;;;14.00;;
57337;SDS011;43173;50.980;18.204;2022-08-25T19:54:10;24.00;;;13.60;;
57337;SDS011;43173;50.980;18.204;2022-08-25T19:56:40;30.60;;;14.10;;
57337;SDS011;43173;50.980;18.204;2022-08-25T19:59:06;28.00;;;15.10;;
57337;SDS011;43173;50.980;18.204;2022-08-25T20:01:32;21.80;;;14.80;;
57337;SDS011;43173;50.980;18.204;2022-08-25T20:04:00;24.80;;;14.40;;
57337;SDS011;43173;50.980;18.204;2022-08-25T20:06:28;27.70;;;15.20;;
57337;SDS011;43173;50.980;18.204;2022-08-25T20:08:56;25.90;;;14.40;;
57337;SDS011;43173;50.980;18.204;2022-08-25T20:11:23;29.10;;;15.60;;
57337;SDS011;43173;50.980;18.204;2022-08-25T20:13:49;23.50;;;15.00;;
57337;SDS011;43173;50.980;18.204;2022-08-25T20:16:15;21.00;;;15.30;;
57337;SDS011;43173;50.980;18.204;2022-08-25T20:18:40;27.30;;;16.20;;
57337;SDS011;43173;50.980;18.204;2022-08-25T20:21:06;29.90;;;15.70;;
57337;SDS011;43173;50.980;18.204;2022-08-25T20:23:31;31.50;;;15.60;;
57337;SDS011;43173;50.980;18.204;2022-08-25T20:26:16;26.00;;;15.00;;
57337;SDS011;43173;50.980;18.204;2022-08-25T20:28:41;25.40;;;15.50;;
57337;SDS011;43173;50.980;18.204;2022-08-25T20:31:07;27.30;;;16.00;;
57337;SDS011;43173;50.980;18.204;2022-08-25T20:33:33;25.50;;;16.10;;
57337;SDS011;43173;50.980;18.204;2022-08-25T20:35:58;25.60;;;15.50;;
57337;SDS011;43173;50.980;18.204;2022-08-25T20:38:24;25.90;;;16.80;;
57337;SDS011;43173;50.980;18.204;2022-08-25T20:40:51;28.70;;;16.30;;
57337;SDS011;43173;50.980;18.204;2022-08-25T20:43:16;33.70;;;16.10;;
57337;SDS011;43173;50.980;18.204;2022-08-25T20:45:42;31.30;;;16.80;;
57337;SDS011;43173;50.980;18.204;2022-08-25T20:48:07;23.50;;;15.90;;
57337;SDS011;43173;50.980;18.204;2022-08-25T20:50:33;27.00;;;16.70;;
57337;SDS011;43173;50.980;18.204;2022-08-25T20:53:02;28.20;;;16.00;;
57337;SDS011;43173;50.980;18.204;2022-08-25T20:55:28;28.10;;;16.70;;
57337;SDS011;43173;50.980;18.204;2022-08-25T20:57:54;24.40;;;15.40;;
57337;SDS011;43173;50.980;18.204;2022-08-25T21:00:19;26.70;;;16.40;;
57337;SDS011;43173;50.980;18.204;2022-08-25T21:02:45;24.20;;;15.50;;
57337;SDS011;43173;50.980;18.204;2022-08-25T21:05:11;22.60;;;15.10;;
57337;SDS011;43173;50.980;18.204;2022-08-25T21:07:37;28.20;;;15.50;;
57337;SDS011;43173;50.980;18.204;2022-08-25T21:10:07;24.70;;;15.10;;
57337;SDS011;43173;50.980;18.204;2022-08-25T21:12:33;26.30;;;16.30;;
57337;SDS011;43173;50.980;18.204;2022-08-25T21:15:02;23.70;;;15.50;;
57337;SDS011;43173;50.980;18.204;2022-08-25T21:17:28;26.40;;;14.90;;
57337;SDS011;43173;50.980;18.204;2022-08-25T21:19:54;24.30;;;15.70;;
57337;SDS011;43173;50.980;18.204;2022-08-25T21:22:20;22.60;;;15.50;;
57337;SDS011;43173;50.980;18.204;2022-08-25T21:24:45;26.20;;;15.70;;
57337;SDS011;43173;50.980;18.204;2022-08-25T21:27:11;28.50;;;15.60;;
57337;SDS011;43173;50.980;18.204;2022-08-25T21:29:37;31.20;;;16.10;;
57337;SDS011;43173;50.980;18.204;2022-08-25T21:32:02;27.70;;;16.10;;
57337;SDS011;43173;50.980;18.204;2022-08-25T21:34:28;29.50;;;16.60;;
57337;SDS011;43173;50.980;18.204;2022-08-25T21:36:55;27.20;;;16.00;;
57337;SDS011;43173;50.980;18.204;2022-08-25T21:39:22;33.40;;;16.00;;
57337;SDS011;43173;50.980;18.204;2022-08-25T21:41:50;27.50;;;15.40;;
57337;SDS011;43173;50.980;18.204;2022-08-25T21:44:16;28.30;;;17.30;;
57337;SDS011;43173;50.980;18.204;2022-08-25T21:46:41;29.20;;;17.10;;
57337;SDS011;43173;50.980;18.204;2022-08-25T21:49:07;27.50;;;16.20;;
57337;SDS011;43173;50.980;18.204;2022-08-25T21:51:37;27.60;;;17.10;;
57337;SDS011;43173;50.980;18.204;2022-08-25T21:54:08;27.20;;;17.00;;
57337;SDS011;43173;50.980;18.204;2022-08-25T21:56:47;29.90;;;17.60;;
57337;SDS011;43173;50.980;18.204;2022-08-25T21:59:15;27.10;;;16.60;;
57337;SDS011;43173;50.980;18.204;2022-08-25T22:01:43;27.30;;;17.50;;
57337;SDS011;43173;50.980;18.204;2022-08-25T22:04:10;30.60;;;18.40;;
57337;SDS011;43173;50.980;18.204;2022-08-25T22:06:36;23.30;;;17.80;;
57337;SDS011;43173;50.980;18.204;2022-08-25T22:09:03;28.20;;;18.30;;
57337;SDS011;43173;50.980;18.204;2022-08-25T22:11:30;28.80;;;18.80;;
57337;SDS011;43173;50.980;18.204;2022-08-25T22:13:56;31.80;;;18.30;;
57337;SDS011;43173;50.980;18.204;2022-08-25T22:16:22;29.30;;;18.70;;
57337;SDS011;43173;50.980;18.204;2022-08-25T22:18:48;25.00;;;18.10;;
57337;SDS011;43173;50.980;18.204;2022-08-25T22:21:15;26.90;;;18.30;;
57337;SDS011;43173;50.980;18.204;2022-08-25T22:23:42;30.50;;;18.70;;
57337;SDS011;43173;50.980;18.204;2022-08-25T22:26:08;26.40;;;17.90;;
57337;SDS011;43173;50.980;18.204;2022-08-25T22:28:35;29.10;;;18.40;;
57337;SDS011;43173;50.980;18.204;2022-08-25T22:31:01;30.40;;;18.60;;
57337;SDS011;43173;50.980;18.204;2022-08-25T22:33:28;28.50;;;19.80;;
57337;SDS011;43173;50.980;18.204;2022-08-25T22:35:54;28.10;;;19.10;;
57337;SDS011;43173;50.980;18.204;2022-08-25T22:38:20;29.40;;;19.50;;
57337;SDS011;43173;50.980;18.204;2022-08-25T22:40:46;28.10;;;18.90;;
57337;SDS011;43173;50.980;18.204;2022-08-25T22:43:11;32.20;;;21.40;;
57337;SDS011;43173;50.980;18.204;2022-08-25T22:45:37;32.50;;;21.10;;
57337;SDS011;43173;50.980;18.204;2022-08-25T22:48:03;32.20;;;20.10;;
57337;SDS011;43173;50.980;18.204;2022-08-25T22:50:29;33.50;;;20.10;;
57337;SDS011;43173;50.980;18.204;2022-08-25T22:52:57;29.40;;;19.90;;
57337;SDS011;43173;50.980;18.204;2022-08-25T22:55:23;29.10;;;21.50;;
57337;SDS011;43173;50.980;18.204;2022-08-25T22:57:49;32.10;;;20.80;;
57337;SDS011;43173;50.980;18.204;2022-08-25T23:00:15;29.50;;;21.00;;
57337;SDS011;43173;50.980;18.204;2022-08-25T23:02:41;31.90;;;20.60;;
57337;SDS011;43173;50.980;18.204;2022-08-25T23:05:08;29.90;;;20.80;;
57337;SDS011;43173;50.980;18.204;2022-08-25T23:07:35;33.00;;;20.70;;
57337;SDS011;43173;50.980;18.204;2022-08-25T23:10:06;29.20;;;20.50;;
57337;SDS011;43173;50.980;18.204;2022-08-25T23:12:34;25.90;;;20.60;;
57337;SDS011;43173;50.980;18.204;2022-08-25T23:15:00;26.50;;;19.50;;
57337;SDS011;43173;50.980;18.204;2022-08-25T23:17:25;29.80;;;20.70;;
57337;SDS011;43173;50.980;18.204;2022-08-25T23:19:54;27.70;;;20.90;;
57337;SDS011;43173;50.980;18.204;2022-08-25T23:22:20;32.10;;;20.70;;
57337;SDS011;43173;50.980;18.204;2022-08-25T23:24:47;30.80;;;20.70;;
57337;SDS011;43173;50.980;18.204;2022-08-25T23:27:17;35.60;;;21.10;;
57337;SDS011;43173;50.980;18.204;2022-08-25T23:29:45;31.90;;;20.20;;
57337;SDS011;43173;50.980;18.204;2022-08-25T23:32:14;30.10;;;21.30;;
57337;SDS011;43173;50.980;18.204;2022-08-25T23:34:41;29.90;;;21.10;;
57337;SDS011;43173;50.980;18.204;2022-08-25T23:37:09;31.70;;;21.60;;
57337;SDS011;43173;50.980;18.204;2022-08-25T23:39:35;32.70;;;21.90;;
57337;SDS011;43173;50.980;18.204;2022-08-25T23:42:01;36.30;;;22.20;;
57337;SDS011;43173;50.980;18.204;2022-08-25T23:44:27;30.50;;;21.90;;
57337;SDS011;43173;50.980;18.204;2022-08-25T23:46:53;32.80;;;22.80;;
57337;SDS011;43173;50.980;18.204;2022-08-25T23:49:19;32.00;;;22.80;;
57337;SDS011;43173;50.980;18.204;2022-08-25T23:51:47;32.40;;;22.30;;
57337;SDS011;43173;50.980;18.204;2022-08-25T23:54:14;34.60;;;22.10;;
57337;SDS011;43173;50.980;18.204;2022-08-25T23:56:42;30.20;;;21.80;;
57337;SDS011;43173;50.980;18.204;2022-08-25T23:59:09;29.00;;;22.00;;
